Beverly Hills, CA

9:00 PM PDT on September 30, 2014 (GMT -0700)
Westwood | Change Station
CLOSE
Current Station
Personal Weather Station
Location: Los Angeles, CA
Elevation: 312 ft
Nearby Weather Stations
Active Advisory: Special Statement

Elev 312 ft 34.06 °N, 118.45 °W | Updated 4 seconds ago

Clear
Clear
67.6 °F
Feels Like 67.6 °F
N
0.0
Wind Variable Wind from WSW
Gusts 2.0 mph

Today
High -- | Low -- °F
--% Chance of Precip.
Yesterday
High -- | Low -- °F
Precip. -- in
6:47 AM 6:39 PM
Waxing Crescent, 43% visible
Pressure 29.77 in
Visibility 10.0 miles
Clouds Clear
Dew Point 63 °F
Humidity 86%
Rainfall 0.00 in
Snow Depth 1 in , 0 in , 0 in
UV 0.0 out of 12
Pollen 5.30 out of 12
Ozone Good
Flu Activity Not available.
METAR KSMO 010351Z AUTO 20003KT 10SM CLR 20/17 A2977 RMK AO2 SLP080 T02000167 $

More Conditions Fewer Conditions

Pressure 29.77 in
Visibility 10.0 miles
Clouds Clear
Dew Point 63 °F
Humidity 86%
Rainfall 0.00 in
Snow Depth 1 in , 0 in , 0 in
UV 0.0 out of 12
Pollen 5.30 out of 12
Ozone Good
Flu Activity Not available.
METAR KSMO 010351Z AUTO 20003KT 10SM CLR 20/17 A2977 RMK AO2 SLP080 T02000167 $

More Conditions Fewer Conditions

10-Day Weather Forecast

Almanac

Astronomy

Sep. 30, 2014 Rise Set
Actual Time 6:47 AM PDT 6:39 PM PDT
Civil Twilight 6:22 AM PDT 7:03 PM PDT
Nautical Twilight 5:53 AM PDT 7:32 PM PDT
Astronomical Twilight 5:24 AM PDT 8:02 PM PDT
Moon 12:47 PM PDT (9/30) 11:25 PM PDT (9/30)
Length of Visible Light 12h 41m
Length of Day
11h 51m
Tomorrow will be 2m 6s shorter.
Waxing Crescent, 43% of the Moon is Illuminated
Oct 1
Waxing Crescent
Oct 1
First Quarter
Oct 8
Full
Oct 15
Last Quarter
Oct 23
New

Today's Extremes

State Highs State Lows

Community

WunderPhotos

Upload Photos

1,757,840 photos uploaded!

Nearby

Air Quality

  Air Quality AQ Index Pollutant
Yesterday Good
OZONE
Current Good
OZONE
Wednesday Good
PM10
Wednesday Good
OZONE
Wednesday Good
CO
Wednesday Good
NO2

Snow Depth

Station Depth Elevation
Summit Meadow 1 in 9122 ft
Forestdale Creek 0 in 8029 ft
Squaw Valley 0 in 8200 ft
Spratt Creek 1 in 6200 ft
Monitor Pass 0 in 8350 ft

Earthquake Activity

City Distance Mag. Time & Date
Shandon, California 161 miles 2.9 5:34 PM PDT
2014-09-30
Avalon, California 68 miles 2.6 1:28 PM PDT
2014-09-30
Minimum magnitude displayed is 2.5.

Coastal Water Temperatures

Place Temperature
Santa Monica Pier 69.1 °F
Los Angeles, CA 68.0 °F
La Jolla, CA 71.1 °F

Nearby Weather Stations